This is the latest recevied weather packets stored in our database for station/object OSTR-WX. If no packets are shown the sender has not sent any weather packets the latest 10 day(s).
| Time | Temp. | Humidity | Pressure | Rain* | Wind** | Luminosity | Snow |
|---|---|---|---|---|---|---|---|
| 1778012848 | 14.44° C | 61% | 1007.8 hPa | - | - | - | - |
| 1778011897 | 15° C | 61% | 1007.7 hPa | - | - | - | - |
| 1778011891 | 15° C | 61% | 1007.7 hPa | - | - | - | - |
| 1778010934 | 15.56° C | 59% | 1007.7 hPa | - | - | - | - |
| 1778009977 | 16.67° C | 56% | 1007.5 hPa | - | - | - | - |
| 1778009020 | 17.22° C | 53% | 1007.5 hPa | - | - | - | - |
| 1778008063 | 19.44° C | 47% | 1007.2 hPa | - | - | - | - |
| 1778007106 | 18.89° C | 47% | 1007.1 hPa | - | - | - | - |
| 1778006149 | 18.89° C | 52% | 1007 hPa | - | - | - | - |
| 1778005200 | 20.56° C | 51% | 1006.7 hPa | - | - | - | - |
| 1778005192 | 20.56° C | 51% | 1006.7 hPa | - | - | - | - |
| 1778004235 | 21.11° C | 43% | 1006.6 hPa | - | - | - | - |
| 1778003278 | 21.67° C | 42% | 1006.5 hPa | - | - | - | - |
| 1778002321 | 22.22° C | 38% | 1006.3 hPa | - | - | - | - |
| 1778001364 | 27.22° C | 23% | 1005.6 hPa | - | - | - | - |
| 1778000407 | 28.89° C | 20% | 1005.5 hPa | - | - | - | - |
| 1777999450 | 29.44° C | 20% | 1005.5 hPa | - | - | - | - |
| 1777998493 | 30° C | 20% | 1005.6 hPa | - | - | - | - |
| 1777997536 | 30° C | 20% | 1005.6 hPa | - | - | - | - |
| 1777996579 | 31.11° C | 19% | 1005.6 hPa | - | - | - | - |
| 1777995622 | 31.11° C | 18% | 1005.6 hPa | - | - | - | - |
| 1777994665 | 30.56° C | 19% | 1005.6 hPa | - | - | - | - |
| 1777993708 | 28.89° C | 24% | 1005.7 hPa | - | - | - | - |
| 1777992751 | 28.33° C | 24% | 1005.8 hPa | - | - | - | - |
| 1777991794 | 28.33° C | 24% | 1006 hPa | - | - | - | - |
* Rain since midnight (hover to see other rain measurements)
** Current wind speed in m/s (hover to see current wind gust speed)